Terminal Aerodrome Forecast
Issued by NWS Bismarck, ND

Home | Current Version | Previous Version | Graphics & Text | Print | Product List | Glossary On
Versions: 1 2 3 4 5 6 7 8 9 10 11 12
000
FTUS43 KBIS 220521
TAFISN
TAF
KISN 220521Z 2206/2306 VRB03KT P6SM SKC
     FM221500 27005KT P6SM FEW090
     FM230100 14005KT P6SM FEW120=

USA.gov is the U.S. government's official web portal to all federal, state and local government web resources and services.